sensor_id;sensor_type;location;lat;lon;timestamp;temperature;humidity
9752;DHT22;4915;51.226;5.966;2022-09-01T00:01:39;17.60;1.00
9752;DHT22;4915;51.226;5.966;2022-09-01T00:04:09;17.60;1.00
9752;DHT22;4915;51.226;5.966;2022-09-01T00:06:38;17.70;1.00
9752;DHT22;4915;51.226;5.966;2022-09-01T00:09:08;17.60;1.00
9752;DHT22;4915;51.226;5.966;2022-09-01T00:11:35;17.60;1.00
9752;DHT22;4915;51.226;5.966;2022-09-01T00:14:03;17.50;1.00
9752;DHT22;4915;51.226;5.966;2022-09-01T00:16:34;17.50;1.00
9752;DHT22;4915;51.226;5.966;2022-09-01T00:19:02;17.50;1.00
9752;DHT22;4915;51.226;5.966;2022-09-01T00:21:32;17.40;1.00
9752;DHT22;4915;51.226;5.966;2022-09-01T00:24:00;17.40;1.00
9752;DHT22;4915;51.226;5.966;2022-09-01T00:26:27;17.30;1.00
9752;DHT22;4915;51.226;5.966;2022-09-01T00:28:54;17.30;1.00
9752;DHT22;4915;51.226;5.966;2022-09-01T00:31:21;17.30;1.00
9752;DHT22;4915;51.226;5.966;2022-09-01T00:33:50;17.20;1.00
9752;DHT22;4915;51.226;5.966;2022-09-01T00:36:18;17.10;1.00
9752;DHT22;4915;51.226;5.966;2022-09-01T00:38:46;17.10;1.00
9752;DHT22;4915;51.226;5.966;2022-09-01T00:41:13;17.10;1.00
9752;DHT22;4915;51.226;5.966;2022-09-01T00:43:44;17.00;1.00
9752;DHT22;4915;51.226;5.966;2022-09-01T00:46:15;16.90;1.00
9752;DHT22;4915;51.226;5.966;2022-09-01T00:48:42;16.90;1.00
9752;DHT22;4915;51.226;5.966;2022-09-01T00:51:12;16.80;1.00
9752;DHT22;4915;51.226;5.966;2022-09-01T00:53:40;16.80;1.00
9752;DHT22;4915;51.226;5.966;2022-09-01T00:56:09;16.80;1.00
9752;DHT22;4915;51.226;5.966;2022-09-01T00:58:36;16.80;1.00
9752;DHT22;4915;51.226;5.966;2022-09-01T01:01:04;16.70;1.00
9752;DHT22;4915;51.226;5.966;2022-09-01T01:03:32;16.70;1.00
9752;DHT22;4915;51.226;5.966;2022-09-01T01:06:01;16.60;1.00
9752;DHT22;4915;51.226;5.966;2022-09-01T01:08:32;16.60;1.00
9752;DHT22;4915;51.226;5.966;2022-09-01T01:11:01;16.60;1.00
9752;DHT22;4915;51.226;5.966;2022-09-01T01:13:29;16.50;1.00
9752;DHT22;4915;51.226;5.966;2022-09-01T01:15:56;16.50;1.00
9752;DHT22;4915;51.226;5.966;2022-09-01T01:18:24;16.50;1.00
9752;DHT22;4915;51.226;5.966;2022-09-01T01:20:58;16.50;1.00
9752;DHT22;4915;51.226;5.966;2022-09-01T01:23:47;16.50;1.00
9752;DHT22;4915;51.226;5.966;2022-09-01T01:26:17;16.50;1.00
9752;DHT22;4915;51.226;5.966;2022-09-01T01:28:44;16.50;1.00
9752;DHT22;4915;51.226;5.966;2022-09-01T01:31:15;16.40;1.00
9752;DHT22;4915;51.226;5.966;2022-09-01T01:33:45;16.30;1.00
9752;DHT22;4915;51.226;5.966;2022-09-01T01:36:16;16.20;1.00
9752;DHT22;4915;51.226;5.966;2022-09-01T01:38:47;16.10;1.20
9752;DHT22;4915;51.226;5.966;2022-09-01T01:41:17;16.10;6.80
9752;DHT22;4915;51.226;5.966;2022-09-01T01:43:46;16.10;10.50
9752;DHT22;4915;51.226;5.966;2022-09-01T01:46:15;16.00;13.80
9752;DHT22;4915;51.226;5.966;2022-09-01T01:48:44;16.00;14.40
9752;DHT22;4915;51.226;5.966;2022-09-01T01:51:11;16.00;16.30
9752;DHT22;4915;51.226;5.966;2022-09-01T01:53:39;16.00;13.40
9752;DHT22;4915;51.226;5.966;2022-09-01T01:56:06;16.00;13.20
9752;DHT22;4915;51.226;5.966;2022-09-01T01:58:37;15.90;14.10
9752;DHT22;4915;51.226;5.966;2022-09-01T02:01:05;15.90;14.60
9752;DHT22;4915;51.226;5.966;2022-09-01T02:03:35;15.90;14.20
9752;DHT22;4915;51.226;5.966;2022-09-01T02:06:05;15.80;15.80
9752;DHT22;4915;51.226;5.966;2022-09-01T02:08:35;15.80;17.40
9752;DHT22;4915;51.226;5.966;2022-09-01T02:11:04;15.70;21.20
9752;DHT22;4915;51.226;5.966;2022-09-01T02:13:31;15.70;27.80
9752;DHT22;4915;51.226;5.966;2022-09-01T02:16:03;15.70;32.40
9752;DHT22;4915;51.226;5.966;2022-09-01T02:18:34;15.60;32.50
9752;DHT22;4915;51.226;5.966;2022-09-01T02:21:02;15.60;33.60
9752;DHT22;4915;51.226;5.966;2022-09-01T02:23:36;15.60;34.60
9752;DHT22;4915;51.226;5.966;2022-09-01T02:26:07;15.60;35.10
9752;DHT22;4915;51.226;5.966;2022-09-01T02:28:38;15.50;37.60
9752;DHT22;4915;51.226;5.966;2022-09-01T02:31:09;15.40;42.20
9752;DHT22;4915;51.226;5.966;2022-09-01T02:33:39;15.40;43.30
9752;DHT22;4915;51.226;5.966;2022-09-01T02:36:11;15.40;43.80
9752;DHT22;4915;51.226;5.966;2022-09-01T02:38:39;15.40;45.00
9752;DHT22;4915;51.226;5.966;2022-09-01T02:41:07;15.40;46.30
9752;DHT22;4915;51.226;5.966;2022-09-01T02:43:34;15.40;46.90
9752;DHT22;4915;51.226;5.966;2022-09-01T02:46:02;15.30;48.30
9752;DHT22;4915;51.226;5.966;2022-09-01T02:48:33;15.30;53.30
9752;DHT22;4915;51.226;5.966;2022-09-01T02:51:03;15.30;55.80
9752;DHT22;4915;51.226;5.966;2022-09-01T02:53:31;15.30;58.30
9752;DHT22;4915;51.226;5.966;2022-09-01T02:56:00;15.30;59.00
9752;DHT22;4915;51.226;5.966;2022-09-01T02:58:29;15.30;62.60
9752;DHT22;4915;51.226;5.966;2022-09-01T03:00:58;15.30;68.40
9752;DHT22;4915;51.226;5.966;2022-09-01T03:03:25;15.20;77.60
9752;DHT22;4915;51.226;5.966;2022-09-01T03:05:54;15.20;88.80
9752;DHT22;4915;51.226;5.966;2022-09-01T03:08:23;15.20;94.50
9752;DHT22;4915;51.226;5.966;2022-09-01T03:10:51;15.20;96.80
9752;DHT22;4915;51.226;5.966;2022-09-01T03:13:22;15.20;99.10
9752;DHT22;4915;51.226;5.966;2022-09-01T03:15:51;15.10;99.90
9752;DHT22;4915;51.226;5.966;2022-09-01T03:18:18;15.10;99.90
9752;DHT22;4915;51.226;5.966;2022-09-01T03:20:46;15.10;99.90
9752;DHT22;4915;51.226;5.966;2022-09-01T03:23:17;15.20;99.90
9752;DHT22;4915;51.226;5.966;2022-09-01T03:25:45;15.20;99.90
9752;DHT22;4915;51.226;5.966;2022-09-01T03:28:13;15.30;99.90
9752;DHT22;4915;51.226;5.966;2022-09-01T03:30:45;15.30;99.90
9752;DHT22;4915;51.226;5.966;2022-09-01T03:33:15;15.30;99.90
9752;DHT22;4915;51.226;5.966;2022-09-01T03:35:43;15.30;99.90
9752;DHT22;4915;51.226;5.966;2022-09-01T03:38:11;15.20;99.90
9752;DHT22;4915;51.226;5.966;2022-09-01T03:40:39;15.30;99.90
9752;DHT22;4915;51.226;5.966;2022-09-01T03:43:08;15.20;99.90
9752;DHT22;4915;51.226;5.966;2022-09-01T03:45:37;15.20;99.90
9752;DHT22;4915;51.226;5.966;2022-09-01T03:48:05;15.20;99.90
9752;DHT22;4915;51.226;5.966;2022-09-01T03:50:35;15.10;99.90
9752;DHT22;4915;51.226;5.966;2022-09-01T03:53:11;15.00;99.90
9752;DHT22;4915;51.226;5.966;2022-09-01T03:55:40;14.90;99.90
9752;DHT22;4915;51.226;5.966;2022-09-01T03:58:09;14.90;99.90
9752;DHT22;4915;51.226;5.966;2022-09-01T04:00:41;14.90;99.90
9752;DHT22;4915;51.226;5.966;2022-09-01T04:03:10;14.90;99.90
9752;DHT22;4915;51.226;5.966;2022-09-01T04:05:41;14.90;99.90
9752;DHT22;4915;51.226;5.966;2022-09-01T04:08:10;14.80;99.90
9752;DHT22;4915;51.226;5.966;2022-09-01T04:10:45;14.80;99.90
9752;DHT22;4915;51.226;5.966;2022-09-01T04:13:16;14.70;99.90
9752;DHT22;4915;51.226;5.966;2022-09-01T04:15:43;14.60;99.90
9752;DHT22;4915;51.226;5.966;2022-09-01T04:18:11;14.60;99.90
9752;DHT22;4915;51.226;5.966;2022-09-01T04:20:46;14.50;99.90
9752;DHT22;4915;51.226;5.966;2022-09-01T04:23:18;14.30;99.90
9752;DHT22;4915;51.226;5.966;2022-09-01T04:25:53;14.30;99.90
9752;DHT22;4915;51.226;5.966;2022-09-01T04:28:23;14.40;99.90
9752;DHT22;4915;51.226;5.966;2022-09-01T04:30:56;14.40;99.90
9752;DHT22;4915;51.226;5.966;2022-09-01T04:33:24;14.40;99.90
9752;DHT22;4915;51.226;5.966;2022-09-01T04:35:53;14.30;99.90
9752;DHT22;4915;51.226;5.966;2022-09-01T04:38:22;14.30;99.90
9752;DHT22;4915;51.226;5.966;2022-09-01T04:40:50;14.30;99.90
9752;DHT22;4915;51.226;5.966;2022-09-01T04:43:19;14.30;99.90
9752;DHT22;4915;51.226;5.966;2022-09-01T04:45:46;14.20;99.90
9752;DHT22;4915;51.226;5.966;2022-09-01T04:48:17;14.20;99.90
9752;DHT22;4915;51.226;5.966;2022-09-01T04:50:45;14.20;99.90
9752;DHT22;4915;51.226;5.966;2022-09-01T04:53:14;14.30;99.90
9752;DHT22;4915;51.226;5.966;2022-09-01T04:55:43;14.30;99.90
9752;DHT22;4915;51.226;5.966;2022-09-01T04:58:12;14.30;99.90
9752;DHT22;4915;51.226;5.966;2022-09-01T05:00:44;14.20;99.90
9752;DHT22;4915;51.226;5.966;2022-09-01T05:03:13;14.20;99.90
9752;DHT22;4915;51.226;5.966;2022-09-01T05:05:43;14.10;99.90
9752;DHT22;4915;51.226;5.966;2022-09-01T05:08:12;14.10;99.90
9752;DHT22;4915;51.226;5.966;2022-09-01T05:10:43;14.10;99.90
9752;DHT22;4915;51.226;5.966;2022-09-01T05:13:13;14.10;99.90
9752;DHT22;4915;51.226;5.966;2022-09-01T05:15:45;14.10;99.90
9752;DHT22;4915;51.226;5.966;2022-09-01T05:18:14;14.10;99.90
9752;DHT22;4915;51.226;5.966;2022-09-01T05:20:42;14.10;99.90
9752;DHT22;4915;51.226;5.966;2022-09-01T05:23:10;14.20;99.90
9752;DHT22;4915;51.226;5.966;2022-09-01T05:25:42;14.20;99.90
9752;DHT22;4915;51.226;5.966;2022-09-01T05:28:11;14.30;99.90
9752;DHT22;4915;51.226;5.966;2022-09-01T05:30:39;14.40;99.90
9752;DHT22;4915;51.226;5.966;2022-09-01T05:33:08;14.40;99.90
9752;DHT22;4915;51.226;5.966;2022-09-01T05:35:38;14.40;99.90
9752;DHT22;4915;51.226;5.966;2022-09-01T05:38:09;14.50;99.90
9752;DHT22;4915;51.226;5.966;2022-09-01T05:40:38;14.60;99.90
9752;DHT22;4915;51.226;5.966;2022-09-01T05:43:07;14.60;99.90
9752;DHT22;4915;51.226;5.966;2022-09-01T05:45:39;14.70;99.90
9752;DHT22;4915;51.226;5.966;2022-09-01T05:48:11;14.80;99.90
9752;DHT22;4915;51.226;5.966;2022-09-01T05:50:45;14.80;99.90
9752;DHT22;4915;51.226;5.966;2022-09-01T05:53:14;14.80;99.90
9752;DHT22;4915;51.226;5.966;2022-09-01T05:55:42;14.90;99.90
9752;DHT22;4915;51.226;5.966;2022-09-01T05:58:13;15.10;99.90
9752;DHT22;4915;51.226;5.966;2022-09-01T06:00:41;15.20;99.90
9752;DHT22;4915;51.226;5.966;2022-09-01T06:03:10;15.20;99.90
9752;DHT22;4915;51.226;5.966;2022-09-01T06:05:39;15.30;99.90
9752;DHT22;4915;51.226;5.966;2022-09-01T06:08:07;15.50;99.90
9752;DHT22;4915;51.226;5.966;2022-09-01T06:10:36;15.70;99.90
9752;DHT22;4915;51.226;5.966;2022-09-01T06:13:05;15.90;99.90
9752;DHT22;4915;51.226;5.966;2022-09-01T06:15:32;16.20;99.90
9752;DHT22;4915;51.226;5.966;2022-09-01T06:18:00;16.60;99.90
9752;DHT22;4915;51.226;5.966;2022-09-01T06:20:29;17.30;99.90
9752;DHT22;4915;51.226;5.966;2022-09-01T06:22:56;18.10;99.90
9752;DHT22;4915;51.226;5.966;2022-09-01T06:25:23;18.70;99.90
9752;DHT22;4915;51.226;5.966;2022-09-01T06:27:55;19.10;99.90
9752;DHT22;4915;51.226;5.966;2022-09-01T06:30:22;19.30;90.80
9752;DHT22;4915;51.226;5.966;2022-09-01T06:32:52;19.80;52.30
9752;DHT22;4915;51.226;5.966;2022-09-01T06:35:19;20.00;15.80
9752;DHT22;4915;51.226;5.966;2022-09-01T06:37:51;20.20;1.00
9752;DHT22;4915;51.226;5.966;2022-09-01T06:40:18;20.20;1.00
9752;DHT22;4915;51.226;5.966;2022-09-01T06:42:47;20.70;1.00
9752;DHT22;4915;51.226;5.966;2022-09-01T06:45:17;20.50;1.00
9752;DHT22;4915;51.226;5.966;2022-09-01T06:47:46;20.80;1.00
9752;DHT22;4915;51.226;5.966;2022-09-01T06:50:18;21.10;1.00
9752;DHT22;4915;51.226;5.966;2022-09-01T06:52:47;21.40;1.00
9752;DHT22;4915;51.226;5.966;2022-09-01T06:55:16;21.30;1.00
9752;DHT22;4915;51.226;5.966;2022-09-01T06:57:43;21.50;1.00
9752;DHT22;4915;51.226;5.966;2022-09-01T07:00:13;21.50;1.00
9752;DHT22;4915;51.226;5.966;2022-09-01T07:02:43;21.60;1.00
9752;DHT22;4915;51.226;5.966;2022-09-01T07:05:10;21.60;1.00
9752;DHT22;4915;51.226;5.966;2022-09-01T07:07:45;22.00;1.00
9752;DHT22;4915;51.226;5.966;2022-09-01T07:10:12;22.30;1.00
9752;DHT22;4915;51.226;5.966;2022-09-01T07:12:41;22.30;1.00
9752;DHT22;4915;51.226;5.966;2022-09-01T07:15:11;22.60;1.00
9752;DHT22;4915;51.226;5.966;2022-09-01T07:17:45;22.90;1.00
9752;DHT22;4915;51.226;5.966;2022-09-01T07:20:14;22.90;1.00
9752;DHT22;4915;51.226;5.966;2022-09-01T07:22:42;23.30;1.00
9752;DHT22;4915;51.226;5.966;2022-09-01T07:25:09;23.40;1.00
9752;DHT22;4915;51.226;5.966;2022-09-01T07:27:37;23.30;1.00
9752;DHT22;4915;51.226;5.966;2022-09-01T07:30:07;23.30;1.00
9752;DHT22;4915;51.226;5.966;2022-09-01T07:32:36;23.80;1.00
9752;DHT22;4915;51.226;5.966;2022-09-01T07:35:06;24.00;1.00
9752;DHT22;4915;51.226;5.966;2022-09-01T07:37:33;24.20;1.00
9752;DHT22;4915;51.226;5.966;2022-09-01T07:40:04;23.20;1.00
9752;DHT22;4915;51.226;5.966;2022-09-01T07:42:32;23.40;1.00
9752;DHT22;4915;51.226;5.966;2022-09-01T07:44:59;23.90;1.00
9752;DHT22;4915;51.226;5.966;2022-09-01T07:47:30;23.80;1.00
9752;DHT22;4915;51.226;5.966;2022-09-01T07:50:01;23.60;1.00
9752;DHT22;4915;51.226;5.966;2022-09-01T07:52:29;24.10;1.00
9752;DHT22;4915;51.226;5.966;2022-09-01T07:54:56;23.60;1.00
9752;DHT22;4915;51.226;5.966;2022-09-01T07:57:24;23.80;1.00
9752;DHT22;4915;51.226;5.966;2022-09-01T07:59:51;23.80;1.00
9752;DHT22;4915;51.226;5.966;2022-09-01T08:02:20;23.70;1.00
9752;DHT22;4915;51.226;5.966;2022-09-01T08:04:49;23.90;1.00
9752;DHT22;4915;51.226;5.966;2022-09-01T08:07:16;24.10;1.00
9752;DHT22;4915;51.226;5.966;2022-09-01T08:09:45;24.10;1.00
9752;DHT22;4915;51.226;5.966;2022-09-01T08:12:12;24.20;1.00
9752;DHT22;4915;51.226;5.966;2022-09-01T08:14:39;24.80;1.00
9752;DHT22;4915;51.226;5.966;2022-09-01T08:17:06;24.70;1.00
9752;DHT22;4915;51.226;5.966;2022-09-01T08:19:33;25.00;1.00
9752;DHT22;4915;51.226;5.966;2022-09-01T08:22:02;25.40;1.00
9752;DHT22;4915;51.226;5.966;2022-09-01T08:24:29;25.70;1.00
9752;DHT22;4915;51.226;5.966;2022-09-01T08:26:56;25.70;1.00
9752;DHT22;4915;51.226;5.966;2022-09-01T08:29:23;26.00;1.00
9752;DHT22;4915;51.226;5.966;2022-09-01T08:31:51;25.90;1.00
9752;DHT22;4915;51.226;5.966;2022-09-01T08:34:19;26.10;1.00
9752;DHT22;4915;51.226;5.966;2022-09-01T08:36:46;26.40;1.00
9752;DHT22;4915;51.226;5.966;2022-09-01T08:39:14;26.80;1.00
9752;DHT22;4915;51.226;5.966;2022-09-01T08:41:43;26.90;1.00
9752;DHT22;4915;51.226;5.966;2022-09-01T08:44:19;27.10;1.00
9752;DHT22;4915;51.226;5.966;2022-09-01T08:46:48;27.50;1.00
9752;DHT22;4915;51.226;5.966;2022-09-01T08:49:22;27.60;1.00
9752;DHT22;4915;51.226;5.966;2022-09-01T08:51:54;27.40;1.00
9752;DHT22;4915;51.226;5.966;2022-09-01T08:54:31;27.50;1.00
9752;DHT22;4915;51.226;5.966;2022-09-01T08:57:04;27.30;1.00
9752;DHT22;4915;51.226;5.966;2022-09-01T08:59:32;27.10;1.00
9752;DHT22;4915;51.226;5.966;2022-09-01T09:02:22;27.20;1.00
9752;DHT22;4915;51.226;5.966;2022-09-01T09:04:59;26.50;1.00
9752;DHT22;4915;51.226;5.966;2022-09-01T09:07:39;26.40;1.00
9752;DHT22;4915;51.226;5.966;2022-09-01T09:10:13;26.40;1.00
9752;DHT22;4915;51.226;5.966;2022-09-01T09:12:51;26.80;1.00
9752;DHT22;4915;51.226;5.966;2022-09-01T09:15:25;27.00;1.00
9752;DHT22;4915;51.226;5.966;2022-09-01T09:18:00;26.80;1.00
9752;DHT22;4915;51.226;5.966;2022-09-01T09:20:31;27.50;1.00
9752;DHT22;4915;51.226;5.966;2022-09-01T09:23:01;27.40;1.00
9752;DHT22;4915;51.226;5.966;2022-09-01T09:25:32;27.20;1.00
9752;DHT22;4915;51.226;5.966;2022-09-01T09:27:59;26.70;1.00
9752;DHT22;4915;51.226;5.966;2022-09-01T09:30:27;26.70;1.00
9752;DHT22;4915;51.226;5.966;2022-09-01T09:32:57;26.40;1.00
9752;DHT22;4915;51.226;5.966;2022-09-01T09:35:27;26.60;1.00
9752;DHT22;4915;51.226;5.966;2022-09-01T09:38:14;27.00;1.00
9752;DHT22;4915;51.226;5.966;2022-09-01T09:40:57;27.00;1.00
9752;DHT22;4915;51.226;5.966;2022-09-01T09:43:26;27.30;1.00
9752;DHT22;4915;51.226;5.966;2022-09-01T09:46:25;27.70;1.00
9752;DHT22;4915;51.226;5.966;2022-09-01T09:49:08;28.10;1.00
9752;DHT22;4915;51.226;5.966;2022-09-01T09:51:36;27.10;1.00
9752;DHT22;4915;51.226;5.966;2022-09-01T09:54:12;27.10;1.00
9752;DHT22;4915;51.226;5.966;2022-09-01T09:56:42;27.30;1.00
9752;DHT22;4915;51.226;5.966;2022-09-01T09:59:20;27.20;1.00
9752;DHT22;4915;51.226;5.966;2022-09-01T10:01:48;26.90;1.00
9752;DHT22;4915;51.226;5.966;2022-09-01T10:04:32;26.10;1.00
9752;DHT22;4915;51.226;5.966;2022-09-01T10:06:59;27.00;1.00
9752;DHT22;4915;51.226;5.966;2022-09-01T10:09:35;28.00;1.00
9752;DHT22;4915;51.226;5.966;2022-09-01T10:12:04;27.80;1.00
9752;DHT22;4915;51.226;5.966;2022-09-01T10:14:44;27.30;1.00
9752;DHT22;4915;51.226;5.966;2022-09-01T10:17:16;27.60;1.00
9752;DHT22;4915;51.226;5.966;2022-09-01T10:19:49;28.30;1.00
9752;DHT22;4915;51.226;5.966;2022-09-01T10:22:16;28.20;1.00
9752;DHT22;4915;51.226;5.966;2022-09-01T10:24:44;26.80;1.00
9752;DHT22;4915;51.226;5.966;2022-09-01T10:27:18;27.10;1.00
9752;DHT22;4915;51.226;5.966;2022-09-01T10:29:51;27.40;1.00
9752;DHT22;4915;51.226;5.966;2022-09-01T10:32:25;27.50;1.00
9752;DHT22;4915;51.226;5.966;2022-09-01T10:34:53;28.20;1.00
9752;DHT22;4915;51.226;5.966;2022-09-01T10:37:21;28.60;1.00
9752;DHT22;4915;51.226;5.966;2022-09-01T10:40:12;29.40;1.00
9752;DHT22;4915;51.226;5.966;2022-09-01T10:42:42;29.70;1.00
9752;DHT22;4915;51.226;5.966;2022-09-01T10:45:19;29.90;1.00
9752;DHT22;4915;51.226;5.966;2022-09-01T10:47:55;29.30;1.00
9752;DHT22;4915;51.226;5.966;2022-09-01T10:50:26;29.40;1.00
9752;DHT22;4915;51.226;5.966;2022-09-01T10:53:05;29.50;1.00
9752;DHT22;4915;51.226;5.966;2022-09-01T10:55:42;29.80;1.00
9752;DHT22;4915;51.226;5.966;2022-09-01T10:58:29;29.90;1.00
9752;DHT22;4915;51.226;5.966;2022-09-01T11:01:00;30.00;1.00
9752;DHT22;4915;51.226;5.966;2022-09-01T11:06:54;29.90;1.00
9752;DHT22;4915;51.226;5.966;2022-09-01T11:09:26;30.40;1.00
9752;DHT22;4915;51.226;5.966;2022-09-01T11:14:54;29.80;1.00
9752;DHT22;4915;51.226;5.966;2022-09-01T11:17:24;29.20;1.00
9752;DHT22;4915;51.226;5.966;2022-09-01T11:20:09;29.50;1.00
9752;DHT22;4915;51.226;5.966;2022-09-01T11:22:39;29.40;1.00
9752;DHT22;4915;51.226;5.966;2022-09-01T11:25:32;29.80;1.00
9752;DHT22;4915;51.226;5.966;2022-09-01T11:28:35;30.00;1.00
9752;DHT22;4915;51.226;5.966;2022-09-01T11:31:25;29.40;1.00
9752;DHT22;4915;51.226;5.966;2022-09-01T11:34:16;29.80;1.00
9752;DHT22;4915;51.226;5.966;2022-09-01T11:36:50;29.30;1.00
9752;DHT22;4915;51.226;5.966;2022-09-01T11:39:31;29.10;1.00
9752;DHT22;4915;51.226;5.966;2022-09-01T11:42:02;29.60;1.00
9752;DHT22;4915;51.226;5.966;2022-09-01T11:44:35;30.00;1.00
9752;DHT22;4915;51.226;5.966;2022-09-01T11:47:10;29.90;1.00
9752;DHT22;4915;51.226;5.966;2022-09-01T11:49:48;29.80;1.00
9752;DHT22;4915;51.226;5.966;2022-09-01T11:52:18;29.30;1.00
9752;DHT22;4915;51.226;5.966;2022-09-01T11:54:47;29.30;1.00
9752;DHT22;4915;51.226;5.966;2022-09-01T11:57:22;29.10;1.00
9752;DHT22;4915;51.226;5.966;2022-09-01T11:59:50;28.80;1.00
9752;DHT22;4915;51.226;5.966;2022-09-01T12:02:20;28.30;1.00
9752;DHT22;4915;51.226;5.966;2022-09-01T12:04:48;28.20;1.00
9752;DHT22;4915;51.226;5.966;2022-09-01T12:07:26;28.20;1.00
9752;DHT22;4915;51.226;5.966;2022-09-01T12:09:53;28.90;1.00
9752;DHT22;4915;51.226;5.966;2022-09-01T12:12:31;29.00;1.00
9752;DHT22;4915;51.226;5.966;2022-09-01T12:15:00;29.10;1.00
9752;DHT22;4915;51.226;5.966;2022-09-01T12:17:29;28.90;1.00
9752;DHT22;4915;51.226;5.966;2022-09-01T12:20:19;29.60;1.00
9752;DHT22;4915;51.226;5.966;2022-09-01T12:22:46;29.50;1.00
9752;DHT22;4915;51.226;5.966;2022-09-01T12:25:19;29.90;1.00
9752;DHT22;4915;51.226;5.966;2022-09-01T12:27:47;30.10;1.00
9752;DHT22;4915;51.226;5.966;2022-09-01T12:30:15;29.60;1.00
9752;DHT22;4915;51.226;5.966;2022-09-01T12:32:43;29.70;1.00
9752;DHT22;4915;51.226;5.966;2022-09-01T12:35:15;29.90;1.00
9752;DHT22;4915;51.226;5.966;2022-09-01T12:37:44;29.50;1.00
9752;DHT22;4915;51.226;5.966;2022-09-01T12:40:23;29.30;1.00
9752;DHT22;4915;51.226;5.966;2022-09-01T12:42:52;29.60;1.00
9752;DHT22;4915;51.226;5.966;2022-09-01T12:45:38;28.80;1.00
9752;DHT22;4915;51.226;5.966;2022-09-01T12:48:23;28.00;1.00
9752;DHT22;4915;51.226;5.966;2022-09-01T12:50:51;27.80;1.00
9752;DHT22;4915;51.226;5.966;2022-09-01T12:53:23;28.20;1.00
9752;DHT22;4915;51.226;5.966;2022-09-01T12:56:02;28.10;1.00
9752;DHT22;4915;51.226;5.966;2022-09-01T12:58:31;27.80;1.00
9752;DHT22;4915;51.226;5.966;2022-09-01T13:01:02;27.70;1.00
9752;DHT22;4915;51.226;5.966;2022-09-01T13:03:32;27.40;1.00
9752;DHT22;4915;51.226;5.966;2022-09-01T13:06:00;27.30;1.00
9752;DHT22;4915;51.226;5.966;2022-09-01T13:08:29;27.10;1.00
9752;DHT22;4915;51.226;5.966;2022-09-01T13:11:01;26.90;1.00
9752;DHT22;4915;51.226;5.966;2022-09-01T13:13:29;27.20;1.00
9752;DHT22;4915;51.226;5.966;2022-09-01T13:15:58;27.40;1.00
9752;DHT22;4915;51.226;5.966;2022-09-01T13:18:27;27.50;1.00
9752;DHT22;4915;51.226;5.966;2022-09-01T13:20:56;27.60;1.00
9752;DHT22;4915;51.226;5.966;2022-09-01T13:23:24;27.80;1.00
9752;DHT22;4915;51.226;5.966;2022-09-01T13:25:51;27.90;1.00
9752;DHT22;4915;51.226;5.966;2022-09-01T13:28:19;27.70;1.00
9752;DHT22;4915;51.226;5.966;2022-09-01T13:30:53;27.60;1.00
9752;DHT22;4915;51.226;5.966;2022-09-01T13:33:20;27.50;1.00
9752;DHT22;4915;51.226;5.966;2022-09-01T13:35:48;27.20;1.00
9752;DHT22;4915;51.226;5.966;2022-09-01T13:38:17;27.30;1.00
9752;DHT22;4915;51.226;5.966;2022-09-01T13:40:46;27.30;1.00
9752;DHT22;4915;51.226;5.966;2022-09-01T13:43:14;27.40;1.00
9752;DHT22;4915;51.226;5.966;2022-09-01T13:45:41;27.30;1.00
9752;DHT22;4915;51.226;5.966;2022-09-01T13:48:09;27.20;1.00
9752;DHT22;4915;51.226;5.966;2022-09-01T13:50:37;27.10;1.00
9752;DHT22;4915;51.226;5.966;2022-09-01T13:53:05;26.90;1.00
9752;DHT22;4915;51.226;5.966;2022-09-01T13:55:37;26.80;1.00
9752;DHT22;4915;51.226;5.966;2022-09-01T13:58:04;27.00;1.00
9752;DHT22;4915;51.226;5.966;2022-09-01T14:00:34;27.20;1.00
9752;DHT22;4915;51.226;5.966;2022-09-01T14:03:04;27.20;1.00
9752;DHT22;4915;51.226;5.966;2022-09-01T14:05:34;27.10;1.00
9752;DHT22;4915;51.226;5.966;2022-09-01T14:08:01;26.60;1.00
9752;DHT22;4915;51.226;5.966;2022-09-01T14:10:30;26.40;1.00
9752;DHT22;4915;51.226;5.966;2022-09-01T14:12:59;26.30;1.00
9752;DHT22;4915;51.226;5.966;2022-09-01T14:15:28;26.40;1.00
9752;DHT22;4915;51.226;5.966;2022-09-01T14:17:56;26.60;1.00
9752;DHT22;4915;51.226;5.966;2022-09-01T14:20:27;26.70;1.00
9752;DHT22;4915;51.226;5.966;2022-09-01T14:22:56;26.60;1.00
9752;DHT22;4915;51.226;5.966;2022-09-01T14:25:24;26.70;1.00
9752;DHT22;4915;51.226;5.966;2022-09-01T14:27:51;26.70;1.00
9752;DHT22;4915;51.226;5.966;2022-09-01T14:30:22;26.60;1.00
9752;DHT22;4915;51.226;5.966;2022-09-01T14:32:50;26.60;1.00
9752;DHT22;4915;51.226;5.966;2022-09-01T14:35:18;26.60;1.00
9752;DHT22;4915;51.226;5.966;2022-09-01T14:37:46;26.80;1.00
9752;DHT22;4915;51.226;5.966;2022-09-01T14:40:14;26.40;1.00
9752;DHT22;4915;51.226;5.966;2022-09-01T14:42:42;26.40;1.00
9752;DHT22;4915;51.226;5.966;2022-09-01T14:45:14;26.60;1.00
9752;DHT22;4915;51.226;5.966;2022-09-01T14:47:44;26.70;1.00
9752;DHT22;4915;51.226;5.966;2022-09-01T14:50:12;26.80;1.00
9752;DHT22;4915;51.226;5.966;2022-09-01T14:52:39;26.70;1.00
9752;DHT22;4915;51.226;5.966;2022-09-01T14:55:08;26.90;1.00
9752;DHT22;4915;51.226;5.966;2022-09-01T14:57:36;26.80;1.00
9752;DHT22;4915;51.226;5.966;2022-09-01T15:00:07;26.80;1.00
9752;DHT22;4915;51.226;5.966;2022-09-01T15:02:37;26.80;1.00
9752;DHT22;4915;51.226;5.966;2022-09-01T15:05:06;26.90;1.00
9752;DHT22;4915;51.226;5.966;2022-09-01T15:07:33;27.00;1.00
9752;DHT22;4915;51.226;5.966;2022-09-01T15:10:01;26.80;1.00
9752;DHT22;4915;51.226;5.966;2022-09-01T15:12:28;26.70;1.00
9752;DHT22;4915;51.226;5.966;2022-09-01T15:14:59;26.60;1.00
9752;DHT22;4915;51.226;5.966;2022-09-01T15:17:27;26.60;1.00
9752;DHT22;4915;51.226;5.966;2022-09-01T15:19:54;26.50;1.00
9752;DHT22;4915;51.226;5.966;2022-09-01T15:22:43;26.60;1.00
9752;DHT22;4915;51.226;5.966;2022-09-01T15:25:10;26.50;1.00
9752;DHT22;4915;51.226;5.966;2022-09-01T15:27:37;26.60;1.00
9752;DHT22;4915;51.226;5.966;2022-09-01T15:30:05;26.50;1.00
9752;DHT22;4915;51.226;5.966;2022-09-01T15:32:40;26.60;1.00
9752;DHT22;4915;51.226;5.966;2022-09-01T15:35:08;26.60;1.00
9752;DHT22;4915;51.226;5.966;2022-09-01T15:37:35;26.60;1.00
9752;DHT22;4915;51.226;5.966;2022-09-01T15:40:05;26.50;1.00
9752;DHT22;4915;51.226;5.966;2022-09-01T15:42:33;26.50;1.00
9752;DHT22;4915;51.226;5.966;2022-09-01T15:45:02;26.60;1.00
9752;DHT22;4915;51.226;5.966;2022-09-01T15:47:29;26.60;1.00
9752;DHT22;4915;51.226;5.966;2022-09-01T15:49:57;26.40;1.00
9752;DHT22;4915;51.226;5.966;2022-09-01T15:52:24;26.40;1.00
9752;DHT22;4915;51.226;5.966;2022-09-01T15:54:52;26.30;1.00
9752;DHT22;4915;51.226;5.966;2022-09-01T15:57:20;26.20;1.00
9752;DHT22;4915;51.226;5.966;2022-09-01T15:59:48;26.10;1.00
9752;DHT22;4915;51.226;5.966;2022-09-01T16:02:15;26.10;1.00
9752;DHT22;4915;51.226;5.966;2022-09-01T16:04:45;26.10;1.00
9752;DHT22;4915;51.226;5.966;2022-09-01T16:07:13;26.00;1.00
9752;DHT22;4915;51.226;5.966;2022-09-01T16:09:40;26.00;1.00
9752;DHT22;4915;51.226;5.966;2022-09-01T16:12:07;26.00;1.00
9752;DHT22;4915;51.226;5.966;2022-09-01T16:14:36;26.00;1.00
9752;DHT22;4915;51.226;5.966;2022-09-01T16:17:07;26.10;1.00
9752;DHT22;4915;51.226;5.966;2022-09-01T16:19:45;26.10;1.00
9752;DHT22;4915;51.226;5.966;2022-09-01T16:22:20;26.20;1.00
9752;DHT22;4915;51.226;5.966;2022-09-01T16:24:49;26.30;1.00
9752;DHT22;4915;51.226;5.966;2022-09-01T16:27:27;26.30;1.00
9752;DHT22;4915;51.226;5.966;2022-09-01T16:30:01;26.20;1.00
9752;DHT22;4915;51.226;5.966;2022-09-01T16:32:29;26.40;1.00
9752;DHT22;4915;51.226;5.966;2022-09-01T16:35:00;26.30;1.00
9752;DHT22;4915;51.226;5.966;2022-09-01T16:37:42;26.20;1.00
9752;DHT22;4915;51.226;5.966;2022-09-01T16:40:34;26.30;1.00